sensor_id;sensor_type;location;lat;lon;timestamp;temperature;humidity
48806;DHT22;34625;47.176;27.548;2023-10-08T00:01:09;26.30;45.80
48806;DHT22;34625;47.176;27.548;2023-10-08T00:03:38;26.40;45.80
48806;DHT22;34625;47.176;27.548;2023-10-08T00:06:06;26.30;45.80
48806;DHT22;34625;47.176;27.548;2023-10-08T00:08:33;26.40;45.80
48806;DHT22;34625;47.176;27.548;2023-10-08T00:10:59;26.30;45.80
48806;DHT22;34625;47.176;27.548;2023-10-08T00:13:32;26.30;45.90
48806;DHT22;34625;47.176;27.548;2023-10-08T00:16:13;26.20;45.90
48806;DHT22;34625;47.176;27.548;2023-10-08T00:18:43;26.20;45.90
48806;DHT22;34625;47.176;27.548;2023-10-08T00:21:21;26.20;45.90
48806;DHT22;34625;47.176;27.548;2023-10-08T00:23:53;26.20;45.90
48806;DHT22;34625;47.176;27.548;2023-10-08T00:26:26;26.10;46.00
48806;DHT22;34625;47.176;27.548;2023-10-08T00:29:02;26.20;46.10
48806;DHT22;34625;47.176;27.548;2023-10-08T00:31:54;26.10;46.10
48806;DHT22;34625;47.176;27.548;2023-10-08T00:34:22;26.10;46.20
48806;DHT22;34625;47.176;27.548;2023-10-08T00:36:53;26.30;46.30
48806;DHT22;34625;47.176;27.548;2023-10-08T00:39:19;26.10;46.30
48806;DHT22;34625;47.176;27.548;2023-10-08T00:41:59;26.20;46.30
48806;DHT22;34625;47.176;27.548;2023-10-08T00:44:25;26.20;46.30
48806;DHT22;34625;47.176;27.548;2023-10-08T00:47:01;26.40;46.40
48806;DHT22;34625;47.176;27.548;2023-10-08T00:49:30;26.30;46.40
48806;DHT22;34625;47.176;27.548;2023-10-08T00:52:06;26.20;46.50
48806;DHT22;34625;47.176;27.548;2023-10-08T00:54:35;26.30;46.50
48806;DHT22;34625;47.176;27.548;2023-10-08T00:57:15;26.20;46.50
48806;DHT22;34625;47.176;27.548;2023-10-08T00:59:47;26.30;46.50
48806;DHT22;34625;47.176;27.548;2023-10-08T01:02:27;26.20;46.50
48806;DHT22;34625;47.176;27.548;2023-10-08T01:04:56;26.20;46.50
48806;DHT22;34625;47.176;27.548;2023-10-08T01:07:22;26.30;46.60
48806;DHT22;34625;47.176;27.548;2023-10-08T01:09:49;26.30;46.60
48806;DHT22;34625;47.176;27.548;2023-10-08T01:12:23;26.30;46.60
48806;DHT22;34625;47.176;27.548;2023-10-08T01:15:00;26.20;46.60
48806;DHT22;34625;47.176;27.548;2023-10-08T01:17:44;26.20;46.70
48806;DHT22;34625;47.176;27.548;2023-10-08T01:20:33;26.20;46.60
48806;DHT22;34625;47.176;27.548;2023-10-08T01:23:09;26.20;46.70
48806;DHT22;34625;47.176;27.548;2023-10-08T01:25:43;26.20;46.80
48806;DHT22;34625;47.176;27.548;2023-10-08T01:28:17;26.10;46.90
48806;DHT22;34625;47.176;27.548;2023-10-08T01:30:55;26.20;46.90
48806;DHT22;34625;47.176;27.548;2023-10-08T01:33:23;26.20;46.90
48806;DHT22;34625;47.176;27.548;2023-10-08T01:35:54;26.20;46.90
48806;DHT22;34625;47.176;27.548;2023-10-08T01:38:20;26.20;47.00
48806;DHT22;34625;47.176;27.548;2023-10-08T01:40:50;26.10;47.00
48806;DHT22;34625;47.176;27.548;2023-10-08T01:43:17;26.40;47.00
48806;DHT22;34625;47.176;27.548;2023-10-08T01:45:44;26.20;47.00
48806;DHT22;34625;47.176;27.548;2023-10-08T01:48:14;26.30;47.00
48806;DHT22;34625;47.176;27.548;2023-10-08T01:50:54;26.20;47.00
48806;DHT22;34625;47.176;27.548;2023-10-08T01:53:21;26.30;47.00
48806;DHT22;34625;47.176;27.548;2023-10-08T01:55:47;26.20;47.00
48806;DHT22;34625;47.176;27.548;2023-10-08T01:58:18;26.10;47.00
48806;DHT22;34625;47.176;27.548;2023-10-08T02:00:45;26.20;47.00
48806;DHT22;34625;47.176;27.548;2023-10-08T02:03:13;26.10;47.00
48806;DHT22;34625;47.176;27.548;2023-10-08T02:05:44;26.20;47.00
48806;DHT22;34625;47.176;27.548;2023-10-08T02:08:11;26.30;47.00
48806;DHT22;34625;47.176;27.548;2023-10-08T02:10:39;26.10;47.10
48806;DHT22;34625;47.176;27.548;2023-10-08T02:13:07;26.10;47.10
48806;DHT22;34625;47.176;27.548;2023-10-08T02:15:35;26.00;47.10
48806;DHT22;34625;47.176;27.548;2023-10-08T02:18:03;26.20;47.20
48806;DHT22;34625;47.176;27.548;2023-10-08T02:20:30;26.00;47.30
48806;DHT22;34625;47.176;27.548;2023-10-08T02:22:56;26.10;47.30
48806;DHT22;34625;47.176;27.548;2023-10-08T02:25:22;26.20;47.40
48806;DHT22;34625;47.176;27.548;2023-10-08T02:27:49;26.10;47.40
48806;DHT22;34625;47.176;27.548;2023-10-08T02:30:15;26.10;47.50
48806;DHT22;34625;47.176;27.548;2023-10-08T02:32:44;26.10;47.50
48806;DHT22;34625;47.176;27.548;2023-10-08T02:35:10;26.00;47.50
48806;DHT22;34625;47.176;27.548;2023-10-08T02:37:40;26.30;47.50
48806;DHT22;34625;47.176;27.548;2023-10-08T02:40:07;26.20;47.50
48806;DHT22;34625;47.176;27.548;2023-10-08T02:42:55;26.20;47.60
48806;DHT22;34625;47.176;27.548;2023-10-08T02:45:27;26.10;47.60
48806;DHT22;34625;47.176;27.548;2023-10-08T02:47:54;26.10;47.50
48806;DHT22;34625;47.176;27.548;2023-10-08T02:50:21;26.20;47.60
48806;DHT22;34625;47.176;27.548;2023-10-08T02:52:51;26.20;47.50
48806;DHT22;34625;47.176;27.548;2023-10-08T02:55:17;26.10;47.60
48806;DHT22;34625;47.176;27.548;2023-10-08T02:58:01;26.00;47.70
48806;DHT22;34625;47.176;27.548;2023-10-08T03:00:30;26.10;47.70
48806;DHT22;34625;47.176;27.548;2023-10-08T03:03:01;26.00;47.60
48806;DHT22;34625;47.176;27.548;2023-10-08T03:05:28;26.10;47.70
48806;DHT22;34625;47.176;27.548;2023-10-08T03:08:03;26.00;47.70
48806;DHT22;34625;47.176;27.548;2023-10-08T03:10:38;26.00;47.70
48806;DHT22;34625;47.176;27.548;2023-10-08T03:13:04;26.00;47.70
48806;DHT22;34625;47.176;27.548;2023-10-08T03:15:31;26.00;47.80
48806;DHT22;34625;47.176;27.548;2023-10-08T03:18:15;26.00;47.80
48806;DHT22;34625;47.176;27.548;2023-10-08T03:20:41;26.10;47.80
48806;DHT22;34625;47.176;27.548;2023-10-08T03:23:13;26.10;47.90
48806;DHT22;34625;47.176;27.548;2023-10-08T03:25:55;26.00;47.90
48806;DHT22;34625;47.176;27.548;2023-10-08T03:28:44;26.00;48.00
48806;DHT22;34625;47.176;27.548;2023-10-08T03:31:10;26.10;48.00
48806;DHT22;34625;47.176;27.548;2023-10-08T03:33:42;26.10;48.00
48806;DHT22;34625;47.176;27.548;2023-10-08T03:36:15;26.30;48.10
48806;DHT22;34625;47.176;27.548;2023-10-08T03:38:47;26.00;48.10
48806;DHT22;34625;47.176;27.548;2023-10-08T03:41:25;26.10;48.10
48806;DHT22;34625;47.176;27.548;2023-10-08T03:44:06;26.10;48.10
48806;DHT22;34625;47.176;27.548;2023-10-08T03:46:38;26.00;48.10
48806;DHT22;34625;47.176;27.548;2023-10-08T03:49:13;26.30;48.10
48806;DHT22;34625;47.176;27.548;2023-10-08T03:51:48;26.20;48.10
48806;DHT22;34625;47.176;27.548;2023-10-08T03:54:18;26.10;48.10
48806;DHT22;34625;47.176;27.548;2023-10-08T03:56:45;26.00;48.10
48806;DHT22;34625;47.176;27.548;2023-10-08T03:59:15;26.10;48.10
48806;DHT22;34625;47.176;27.548;2023-10-08T04:02:06;26.10;48.10
48806;DHT22;34625;47.176;27.548;2023-10-08T04:04:49;26.10;48.10
48806;DHT22;34625;47.176;27.548;2023-10-08T04:07:24;26.00;48.10
48806;DHT22;34625;47.176;27.548;2023-10-08T04:10:10;26.10;48.20
48806;DHT22;34625;47.176;27.548;2023-10-08T04:12:37;26.00;48.20
48806;DHT22;34625;47.176;27.548;2023-10-08T04:15:08;26.00;48.20
48806;DHT22;34625;47.176;27.548;2023-10-08T04:17:35;26.00;48.30
48806;DHT22;34625;47.176;27.548;2023-10-08T04:20:11;26.00;48.30
48806;DHT22;34625;47.176;27.548;2023-10-08T04:22:55;26.10;48.30
48806;DHT22;34625;47.176;27.548;2023-10-08T04:25:22;26.10;48.30
48806;DHT22;34625;47.176;27.548;2023-10-08T04:27:48;26.00;48.30
48806;DHT22;34625;47.176;27.548;2023-10-08T04:30:16;26.00;48.30
48806;DHT22;34625;47.176;27.548;2023-10-08T04:32:42;26.00;48.30
48806;DHT22;34625;47.176;27.548;2023-10-08T04:35:08;26.10;48.40
48806;DHT22;34625;47.176;27.548;2023-10-08T04:37:40;26.00;48.40
48806;DHT22;34625;47.176;27.548;2023-10-08T04:40:07;26.00;48.40
48806;DHT22;34625;47.176;27.548;2023-10-08T04:42:42;26.20;48.40
48806;DHT22;34625;47.176;27.548;2023-10-08T04:45:11;26.10;48.40
48806;DHT22;34625;47.176;27.548;2023-10-08T04:47:40;26.10;48.50
48806;DHT22;34625;47.176;27.548;2023-10-08T04:50:11;26.10;48.50
48806;DHT22;34625;47.176;27.548;2023-10-08T04:52:41;26.00;48.60
48806;DHT22;34625;47.176;27.548;2023-10-08T04:55:25;26.00;48.60
48806;DHT22;34625;47.176;27.548;2023-10-08T04:57:55;26.10;48.60
48806;DHT22;34625;47.176;27.548;2023-10-08T05:00:22;26.00;48.60
48806;DHT22;34625;47.176;27.548;2023-10-08T05:03:07;25.90;48.20
48806;DHT22;34625;47.176;27.548;2023-10-08T05:05:46;25.90;48.20
48806;DHT22;34625;47.176;27.548;2023-10-08T05:08:35;26.00;48.70
48806;DHT22;34625;47.176;27.548;2023-10-08T05:11:19;26.00;48.80
48806;DHT22;34625;47.176;27.548;2023-10-08T05:14:03;26.00;48.80
48806;DHT22;34625;47.176;27.548;2023-10-08T05:16:34;26.00;48.80
48806;DHT22;34625;47.176;27.548;2023-10-08T05:19:10;26.00;48.90
48806;DHT22;34625;47.176;27.548;2023-10-08T05:21:55;26.00;48.90
48806;DHT22;34625;47.176;27.548;2023-10-08T05:24:47;26.00;48.90
48806;DHT22;34625;47.176;27.548;2023-10-08T05:27:39;26.00;49.00
48806;DHT22;34625;47.176;27.548;2023-10-08T05:30:14;26.00;49.00
48806;DHT22;34625;47.176;27.548;2023-10-08T05:32:55;26.10;49.00
48806;DHT22;34625;47.176;27.548;2023-10-08T05:35:35;26.00;49.10
48806;DHT22;34625;47.176;27.548;2023-10-08T05:38:08;26.10;49.00
48806;DHT22;34625;47.176;27.548;2023-10-08T05:41:04;26.10;49.10
48806;DHT22;34625;47.176;27.548;2023-10-08T05:43:36;26.00;49.00
48806;DHT22;34625;47.176;27.548;2023-10-08T05:46:15;26.00;49.00
48806;DHT22;34625;47.176;27.548;2023-10-08T05:48:58;25.90;48.60
48806;DHT22;34625;47.176;27.548;2023-10-08T05:51:33;26.10;49.10
48806;DHT22;34625;47.176;27.548;2023-10-08T05:54:13;26.00;49.10
48806;DHT22;34625;47.176;27.548;2023-10-08T05:57:02;25.90;48.60
48806;DHT22;34625;47.176;27.548;2023-10-08T05:59:45;26.10;50.20
48806;DHT22;34625;47.176;27.548;2023-10-08T06:02:42;26.00;50.00
48806;DHT22;34625;47.176;27.548;2023-10-08T06:05:12;25.90;49.80
48806;DHT22;34625;47.176;27.548;2023-10-08T06:07:41;26.00;50.30
48806;DHT22;34625;47.176;27.548;2023-10-08T06:10:32;26.00;50.30
48806;DHT22;34625;47.176;27.548;2023-10-08T06:15:44;26.00;50.50
48806;DHT22;34625;47.176;27.548;2023-10-08T06:18:20;26.00;50.50
48806;DHT22;34625;47.176;27.548;2023-10-08T06:20:56;25.90;50.10
48806;DHT22;34625;47.176;27.548;2023-10-08T06:23:25;26.10;51.20
48806;DHT22;34625;47.176;27.548;2023-10-08T06:25:53;26.00;51.70
48806;DHT22;34625;47.176;27.548;2023-10-08T06:28:41;26.10;52.10
48806;DHT22;34625;47.176;27.548;2023-10-08T06:31:08;26.20;51.60
48806;DHT22;34625;47.176;27.548;2023-10-08T06:33:38;26.20;51.20
48806;DHT22;34625;47.176;27.548;2023-10-08T06:36:06;26.30;50.40
48806;DHT22;34625;47.176;27.548;2023-10-08T06:38:40;26.30;50.40
48806;DHT22;34625;47.176;27.548;2023-10-08T06:41:09;26.30;49.60
48806;DHT22;34625;47.176;27.548;2023-10-08T06:43:46;26.20;49.10
48806;DHT22;34625;47.176;27.548;2023-10-08T06:46:19;26.20;48.60
48806;DHT22;34625;47.176;27.548;2023-10-08T06:48:47;26.30;48.30
48806;DHT22;34625;47.176;27.548;2023-10-08T06:51:15;26.30;48.00
48806;DHT22;34625;47.176;27.548;2023-10-08T06:53:45;26.30;47.70
48806;DHT22;34625;47.176;27.548;2023-10-08T06:56:12;26.30;47.60
48806;DHT22;34625;47.176;27.548;2023-10-08T06:58:39;26.30;48.10
48806;DHT22;34625;47.176;27.548;2023-10-08T07:01:07;26.40;48.00
48806;DHT22;34625;47.176;27.548;2023-10-08T07:03:39;26.50;48.10
48806;DHT22;34625;47.176;27.548;2023-10-08T07:06:05;26.60;47.50
48806;DHT22;34625;47.176;27.548;2023-10-08T07:08:43;26.70;47.40
48806;DHT22;34625;47.176;27.548;2023-10-08T07:11:13;26.70;47.20
48806;DHT22;34625;47.176;27.548;2023-10-08T07:13:40;26.80;46.60
48806;DHT22;34625;47.176;27.548;2023-10-08T07:16:08;26.80;46.00
48806;DHT22;34625;47.176;27.548;2023-10-08T07:18:40;26.80;45.70
48806;DHT22;34625;47.176;27.548;2023-10-08T07:21:07;26.90;45.50
48806;DHT22;34625;47.176;27.548;2023-10-08T07:23:40;26.70;45.40
48806;DHT22;34625;47.176;27.548;2023-10-08T07:26:25;26.70;45.00
48806;DHT22;34625;47.176;27.548;2023-10-08T07:28:52;26.80;45.20
48806;DHT22;34625;47.176;27.548;2023-10-08T07:31:23;26.80;44.60
48806;DHT22;34625;47.176;27.548;2023-10-08T07:33:53;26.70;45.20
48806;DHT22;34625;47.176;27.548;2023-10-08T07:36:23;26.70;45.00
48806;DHT22;34625;47.176;27.548;2023-10-08T07:38:51;26.60;45.00
48806;DHT22;34625;47.176;27.548;2023-10-08T07:41:18;26.60;45.80
48806;DHT22;34625;47.176;27.548;2023-10-08T07:43:46;26.70;45.80
48806;DHT22;34625;47.176;27.548;2023-10-08T07:46:27;26.60;45.80
48806;DHT22;34625;47.176;27.548;2023-10-08T07:48:54;26.60;45.80
48806;DHT22;34625;47.176;27.548;2023-10-08T07:51:21;26.60;45.20
48806;DHT22;34625;47.176;27.548;2023-10-08T07:53:51;26.60;46.00
48806;DHT22;34625;47.176;27.548;2023-10-08T07:56:25;26.60;46.30
48806;DHT22;34625;47.176;27.548;2023-10-08T07:58:52;26.60;46.50
48806;DHT22;34625;47.176;27.548;2023-10-08T08:01:22;26.50;46.40
48806;DHT22;34625;47.176;27.548;2023-10-08T08:03:50;26.50;46.00
48806;DHT22;34625;47.176;27.548;2023-10-08T08:06:17;26.50;46.20
48806;DHT22;34625;47.176;27.548;2023-10-08T08:08:43;26.50;46.20
48806;DHT22;34625;47.176;27.548;2023-10-08T08:11:10;26.60;46.10
48806;DHT22;34625;47.176;27.548;2023-10-08T08:13:46;26.40;46.00
48806;DHT22;34625;47.176;27.548;2023-10-08T08:16:13;26.50;46.00
48806;DHT22;34625;47.176;27.548;2023-10-08T08:18:48;26.60;45.90
48806;DHT22;34625;47.176;27.548;2023-10-08T08:21:15;26.50;45.80
48806;DHT22;34625;47.176;27.548;2023-10-08T08:23:43;26.40;45.80
48806;DHT22;34625;47.176;27.548;2023-10-08T08:26:17;26.60;45.80
48806;DHT22;34625;47.176;27.548;2023-10-08T08:28:59;26.60;45.70
48806;DHT22;34625;47.176;27.548;2023-10-08T08:31:28;26.50;45.70
48806;DHT22;34625;47.176;27.548;2023-10-08T08:33:58;26.60;45.60
48806;DHT22;34625;47.176;27.548;2023-10-08T08:36:45;26.60;45.50
48806;DHT22;34625;47.176;27.548;2023-10-08T08:39:16;26.60;45.60
48806;DHT22;34625;47.176;27.548;2023-10-08T08:42:03;26.70;45.60
48806;DHT22;34625;47.176;27.548;2023-10-08T08:44:36;26.60;45.60
48806;DHT22;34625;47.176;27.548;2023-10-08T08:47:12;26.60;45.60
48806;DHT22;34625;47.176;27.548;2023-10-08T08:49:44;26.70;45.60
48806;DHT22;34625;47.176;27.548;2023-10-08T08:52:11;26.60;45.70
48806;DHT22;34625;47.176;27.548;2023-10-08T08:54:39;26.50;45.70
48806;DHT22;34625;47.176;27.548;2023-10-08T08:57:05;26.70;45.70
48806;DHT22;34625;47.176;27.548;2023-10-08T08:59:52;26.50;45.70
48806;DHT22;34625;47.176;27.548;2023-10-08T09:02:21;26.70;45.70
48806;DHT22;34625;47.176;27.548;2023-10-08T09:04:48;26.60;46.40
48806;DHT22;34625;47.176;27.548;2023-10-08T09:07:18;26.60;47.20
48806;DHT22;34625;47.176;27.548;2023-10-08T09:09:47;26.50;48.30
48806;DHT22;34625;47.176;27.548;2023-10-08T09:12:16;26.60;48.70
48806;DHT22;34625;47.176;27.548;2023-10-08T09:14:43;26.60;49.80
48806;DHT22;34625;47.176;27.548;2023-10-08T09:17:10;26.50;50.00
48806;DHT22;34625;47.176;27.548;2023-10-08T09:19:37;26.60;49.20
48806;DHT22;34625;47.176;27.548;2023-10-08T09:22:10;26.60;48.70
48806;DHT22;34625;47.176;27.548;2023-10-08T09:24:39;26.60;48.40
48806;DHT22;34625;47.176;27.548;2023-10-08T09:27:11;26.60;48.10
48806;DHT22;34625;47.176;27.548;2023-10-08T09:29:42;26.60;48.00
48806;DHT22;34625;47.176;27.548;2023-10-08T09:32:11;26.60;47.90
48806;DHT22;34625;47.176;27.548;2023-10-08T09:34:37;26.60;47.70
48806;DHT22;34625;47.176;27.548;2023-10-08T09:37:03;26.60;47.90
48806;DHT22;34625;47.176;27.548;2023-10-08T09:39:31;26.50;47.90
48806;DHT22;34625;47.176;27.548;2023-10-08T09:42:01;26.60;47.80
48806;DHT22;34625;47.176;27.548;2023-10-08T09:44:37;26.60;47.80
48806;DHT22;34625;47.176;27.548;2023-10-08T09:47:05;26.60;47.70
48806;DHT22;34625;47.176;27.548;2023-10-08T09:49:33;26.50;47.50
48806;DHT22;34625;47.176;27.548;2023-10-08T09:52:02;26.50;47.00
48806;DHT22;34625;47.176;27.548;2023-10-08T09:54:37;26.50;47.60
48806;DHT22;34625;47.176;27.548;2023-10-08T09:57:08;26.50;47.70
48806;DHT22;34625;47.176;27.548;2023-10-08T09:59:34;26.40;47.50
48806;DHT22;34625;47.176;27.548;2023-10-08T10:02:01;26.50;47.80
48806;DHT22;34625;47.176;27.548;2023-10-08T10:04:30;26.70;48.10
48806;DHT22;34625;47.176;27.548;2023-10-08T10:07:10;26.70;47.50
48806;DHT22;34625;47.176;27.548;2023-10-08T10:09:39;26.60;48.40
48806;DHT22;34625;47.176;27.548;2023-10-08T10:12:11;26.70;49.00
48806;DHT22;34625;47.176;27.548;2023-10-08T10:14:46;26.70;48.30
48806;DHT22;34625;47.176;27.548;2023-10-08T10:17:19;26.90;47.10
48806;DHT22;34625;47.176;27.548;2023-10-08T10:19:56;26.70;45.80
48806;DHT22;34625;47.176;27.548;2023-10-08T10:22:29;26.70;44.60
48806;DHT22;34625;47.176;27.548;2023-10-08T10:24:59;26.80;44.60
48806;DHT22;34625;47.176;27.548;2023-10-08T10:27:30;26.70;44.60
48806;DHT22;34625;47.176;27.548;2023-10-08T10:30:04;26.70;44.30
48806;DHT22;34625;47.176;27.548;2023-10-08T10:32:37;26.80;46.30
48806;DHT22;34625;47.176;27.548;2023-10-08T10:35:03;27.00;48.10
48806;DHT22;34625;47.176;27.548;2023-10-08T10:37:32;26.90;48.30
48806;DHT22;34625;47.176;27.548;2023-10-08T10:40:08;27.00;46.30
48806;DHT22;34625;47.176;27.548;2023-10-08T10:42:39;27.00;48.80
48806;DHT22;34625;47.176;27.548;2023-10-08T10:45:19;27.10;48.90
48806;DHT22;34625;47.176;27.548;2023-10-08T10:48:06;26.90;45.60
48806;DHT22;34625;47.176;27.548;2023-10-08T10:50:45;27.00;45.80
48806;DHT22;34625;47.176;27.548;2023-10-08T10:53:39;27.00;45.50
48806;DHT22;34625;47.176;27.548;2023-10-08T10:56:24;27.00;45.40
48806;DHT22;34625;47.176;27.548;2023-10-08T10:58:59;27.00;45.20
48806;DHT22;34625;47.176;27.548;2023-10-08T11:01:29;27.00;44.90
48806;DHT22;34625;47.176;27.548;2023-10-08T11:03:56;26.90;44.10
48806;DHT22;34625;47.176;27.548;2023-10-08T11:06:26;27.00;44.70
48806;DHT22;34625;47.176;27.548;2023-10-08T11:08:53;26.80;44.10
48806;DHT22;34625;47.176;27.548;2023-10-08T11:11:26;26.90;44.00
48806;DHT22;34625;47.176;27.548;2023-10-08T11:13:59;26.80;44.10
48806;DHT22;34625;47.176;27.548;2023-10-08T11:16:29;26.80;44.20
48806;DHT22;34625;47.176;27.548;2023-10-08T11:18:57;26.80;44.40
48806;DHT22;34625;47.176;27.548;2023-10-08T11:21:27;26.80;44.70
48806;DHT22;34625;47.176;27.548;2023-10-08T11:23:57;26.80;44.90
48806;DHT22;34625;47.176;27.548;2023-10-08T11:26:26;26.90;45.20
48806;DHT22;34625;47.176;27.548;2023-10-08T11:28:58;26.80;45.60
48806;DHT22;34625;47.176;27.548;2023-10-08T11:31:28;26.70;45.60
48806;DHT22;34625;47.176;27.548;2023-10-08T11:34:03;26.60;45.80
48806;DHT22;34625;47.176;27.548;2023-10-08T11:36:36;26.80;45.70
48806;DHT22;34625;47.176;27.548;2023-10-08T11:39:11;26.60;45.80
48806;DHT22;34625;47.176;27.548;2023-10-08T11:41:39;26.60;45.80
48806;DHT22;34625;47.176;27.548;2023-10-08T11:44:16;26.70;46.00
48806;DHT22;34625;47.176;27.548;2023-10-08T11:46:46;26.70;46.00
48806;DHT22;34625;47.176;27.548;2023-10-08T11:49:17;26.50;46.00
48806;DHT22;34625;47.176;27.548;2023-10-08T11:51:45;26.70;46.00
48806;DHT22;34625;47.176;27.548;2023-10-08T11:54:14;26.70;46.30
48806;DHT22;34625;47.176;27.548;2023-10-08T11:56:40;26.70;46.90
48806;DHT22;34625;47.176;27.548;2023-10-08T11:59:07;26.60;47.00
48806;DHT22;34625;47.176;27.548;2023-10-08T12:01:38;26.70;46.90
48806;DHT22;34625;47.176;27.548;2023-10-08T12:04:08;26.60;46.90
48806;DHT22;34625;47.176;27.548;2023-10-08T12:06:42;26.70;46.80
48806;DHT22;34625;47.176;27.548;2023-10-08T12:09:18;26.60;46.80
48806;DHT22;34625;47.176;27.548;2023-10-08T12:11:48;26.70;46.80
48806;DHT22;34625;47.176;27.548;2023-10-08T12:14:14;26.60;47.10
48806;DHT22;34625;47.176;27.548;2023-10-08T12:16:41;26.60;47.50
48806;DHT22;34625;47.176;27.548;2023-10-08T12:19:08;26.60;47.80
48806;DHT22;34625;47.176;27.548;2023-10-08T12:21:44;26.50;48.00
48806;DHT22;34625;47.176;27.548;2023-10-08T12:24:13;26.70;48.30
48806;DHT22;34625;47.176;27.548;2023-10-08T12:26:40;26.60;48.60
48806;DHT22;34625;47.176;27.548;2023-10-08T12:29:13;26.60;48.90
48806;DHT22;34625;47.176;27.548;2023-10-08T12:31:45;26.60;49.20
48806;DHT22;34625;47.176;27.548;2023-10-08T12:34:14;26.60;49.40
48806;DHT22;34625;47.176;27.548;2023-10-08T12:36:40;26.60;49.10
48806;DHT22;34625;47.176;27.548;2023-10-08T12:39:08;26.50;48.70
48806;DHT22;34625;47.176;27.548;2023-10-08T12:41:44;26.50;48.40
48806;DHT22;34625;47.176;27.548;2023-10-08T12:44:11;26.50;48.30
48806;DHT22;34625;47.176;27.548;2023-10-08T12:46:37;26.50;48.10
48806;DHT22;34625;47.176;27.548;2023-10-08T12:49:03;26.60;48.00
48806;DHT22;34625;47.176;27.548;2023-10-08T12:51:30;26.60;47.90
48806;DHT22;34625;47.176;27.548;2023-10-08T12:54:00;26.50;47.90
48806;DHT22;34625;47.176;27.548;2023-10-08T12:56:30;26.60;47.90
48806;DHT22;34625;47.176;27.548;2023-10-08T12:59:05;26.60;47.80
48806;DHT22;34625;47.176;27.548;2023-10-08T13:01:37;26.50;47.70
48806;DHT22;34625;47.176;27.548;2023-10-08T13:04:06;26.50;47.60
48806;DHT22;34625;47.176;27.548;2023-10-08T13:06:34;26.50;47.50
48806;DHT22;34625;47.176;27.548;2023-10-08T13:09:03;26.40;47.60
48806;DHT22;34625;47.176;27.548;2023-10-08T13:11:35;26.60;47.60
48806;DHT22;34625;47.176;27.548;2023-10-08T13:14:05;26.40;47.60
48806;DHT22;34625;47.176;27.548;2023-10-08T13:16:31;26.40;47.60
48806;DHT22;34625;47.176;27.548;2023-10-08T13:18:58;26.40;47.60
48806;DHT22;34625;47.176;27.548;2023-10-08T13:21:25;26.40;47.60
48806;DHT22;34625;47.176;27.548;2023-10-08T13:23:52;26.50;47.70
48806;DHT22;34625;47.176;27.548;2023-10-08T13:26:18;26.40;47.70
48806;DHT22;34625;47.176;27.548;2023-10-08T13:28:48;26.50;47.80
48806;DHT22;34625;47.176;27.548;2023-10-08T13:31:14;26.40;47.80
48806;DHT22;34625;47.176;27.548;2023-10-08T13:33:43;26.40;47.80
48806;DHT22;34625;47.176;27.548;2023-10-08T13:36:10;26.40;47.80
48806;DHT22;34625;47.176;27.548;2023-10-08T13:38:39;26.40;47.90
48806;DHT22;34625;47.176;27.548;2023-10-08T13:41:09;26.40;47.90
48806;DHT22;34625;47.176;27.548;2023-10-08T13:43:45;26.40;47.90
48806;DHT22;34625;47.176;27.548;2023-10-08T13:46:16;26.10;47.90
48806;DHT22;34625;47.176;27.548;2023-10-08T13:48:47;26.50;47.90
48806;DHT22;34625;47.176;27.548;2023-10-08T13:51:21;26.40;48.00
48806;DHT22;34625;47.176;27.548;2023-10-08T13:53:55;26.40;47.90
48806;DHT22;34625;47.176;27.548;2023-10-08T13:56:32;26.50;48.30
48806;DHT22;34625;47.176;27.548;2023-10-08T13:58:59;26.50;49.00
48806;DHT22;34625;47.176;27.548;2023-10-08T14:01:38;26.50;48.90
48806;DHT22;34625;47.176;27.548;2023-10-08T14:04:06;26.60;48.30
48806;DHT22;34625;47.176;27.548;2023-10-08T14:06:38;26.70;48.10
48806;DHT22;34625;47.176;27.548;2023-10-08T14:09:08;27.00;48.50
48806;DHT22;34625;47.176;27.548;2023-10-08T14:11:37;26.90;47.70
48806;DHT22;34625;47.176;27.548;2023-10-08T14:14:04;26.90;47.30
48806;DHT22;34625;47.176;27.548;2023-10-08T14:16:42;26.80;48.10
48806;DHT22;34625;47.176;27.548;2023-10-08T14:19:12;26.90;47.60
48806;DHT22;34625;47.176;27.548;2023-10-08T14:21:42;26.90;47.10
48806;DHT22;34625;47.176;27.548;2023-10-08T14:24:29;26.90;47.20
48806;DHT22;34625;47.176;27.548;2023-10-08T14:26:59;27.10;47.60
48806;DHT22;34625;47.176;27.548;2023-10-08T14:29:39;27.00;48.10
48806;DHT22;34625;47.176;27.548;2023-10-08T14:32:15;27.00;48.20
48806;DHT22;34625;47.176;27.548;2023-10-08T14:34:41;27.20;47.40
48806;DHT22;34625;47.176;27.548;2023-10-08T14:37:13;27.10;47.00
48806;DHT22;34625;47.176;27.548;2023-10-08T14:39:58;27.10;47.70
48806;DHT22;34625;47.176;27.548;2023-10-08T14:42:43;27.00;49.40
48806;DHT22;34625;47.176;27.548;2023-10-08T14:45:29;27.00;48.30
48806;DHT22;34625;47.176;27.548;2023-10-08T14:47:57;26.90;46.70
48806;DHT22;34625;47.176;27.548;2023-10-08T14:50:25;27.00;46.80
48806;DHT22;34625;47.176;27.548;2023-10-08T14:52:54;26.90;45.80
48806;DHT22;34625;47.176;27.548;2023-10-08T14:55:21;27.00;46.20
48806;DHT22;34625;47.176;27.548;2023-10-08T14:57:49;26.90;45.40
48806;DHT22;34625;47.176;27.548;2023-10-08T15:00:19;27.10;45.80
48806;DHT22;34625;47.176;27.548;2023-10-08T15:02:53;27.10;45.60
48806;DHT22;34625;47.176;27.548;2023-10-08T15:05:22;26.90;45.00
48806;DHT22;34625;47.176;27.548;2023-10-08T15:07:49;27.00;45.60
48806;DHT22;34625;47.176;27.548;2023-10-08T15:10:16;26.80;45.00
48806;DHT22;34625;47.176;27.548;2023-10-08T15:12:43;26.90;45.00
48806;DHT22;34625;47.176;27.548;2023-10-08T15:15:09;26.90;45.10
48806;DHT22;34625;47.176;27.548;2023-10-08T15:17:45;26.90;45.20
48806;DHT22;34625;47.176;27.548;2023-10-08T15:20:13;26.90;45.30
48806;DHT22;34625;47.176;27.548;2023-10-08T15:22:44;26.70;45.40
48806;DHT22;34625;47.176;27.548;2023-10-08T15:25:11;26.70;45.50
48806;DHT22;34625;47.176;27.548;2023-10-08T15:27:41;26.70;45.50
48806;DHT22;34625;47.176;27.548;2023-10-08T15:30:11;26.70;45.50
48806;DHT22;34625;47.176;27.548;2023-10-08T15:32:40;26.70;45.50
48806;DHT22;34625;47.176;27.548;2023-10-08T15:35:14;26.80;45.40
48806;DHT22;34625;47.176;27.548;2023-10-08T15:37:42;26.90;45.50
48806;DHT22;34625;47.176;27.548;2023-10-08T15:40:09;26.70;45.50
48806;DHT22;34625;47.176;27.548;2023-10-08T15:42:47;26.80;45.50
48806;DHT22;34625;47.176;27.548;2023-10-08T15:45:17;26.70;45.40
48806;DHT22;34625;47.176;27.548;2023-10-08T15:47:44;26.80;45.40